createdAt,value
2023-09-24T00:00:16.268Z,10.31
2023-09-24T00:02:43.116Z,10.26
2023-09-24T00:05:10.412Z,10.61
2023-09-24T00:07:37.943Z,10.59
2023-09-24T00:10:05.384Z,10.43
2023-09-24T00:12:32.544Z,10.30
2023-09-24T00:14:59.409Z,10.39
2023-09-24T00:17:26.844Z,10.38
2023-09-24T00:19:54.336Z,10.35
2023-09-24T00:22:21.324Z,10.42
2023-09-24T00:24:48.116Z,10.33
2023-09-24T00:27:16.042Z,10.37
2023-09-24T00:29:42.920Z,10.21
2023-09-24T00:32:10.366Z,10.20
2023-09-24T00:34:37.306Z,10.21
2023-09-24T00:37:04.081Z,10.23
2023-09-24T00:39:31.666Z,10.26
2023-09-24T00:41:58.582Z,10.21
2023-09-24T00:44:25.482Z,10.07
2023-09-24T00:46:52.372Z,10.16
2023-09-24T00:49:19.710Z,10.15
2023-09-24T00:51:47.052Z,10.14
2023-09-24T00:54:14.296Z,10.05
2023-09-24T00:56:41.984Z,10.15
2023-09-24T00:59:09.700Z,10.12
2023-09-24T01:01:37.062Z,10.15
2023-09-24T01:04:09.475Z,10.26
2023-09-24T01:06:36.858Z,10.17
2023-09-24T01:09:09.834Z,10.17
2023-09-24T01:11:39.343Z,10.29
2023-09-24T01:14:09.243Z,10.46
2023-09-24T01:16:39.018Z,10.55
2023-09-24T01:19:06.801Z,10.56
2023-09-24T01:21:33.795Z,10.57
2023-09-24T01:24:01.548Z,10.67
2023-09-24T01:26:28.713Z,10.59
2023-09-24T01:28:56.016Z,10.70
2023-09-24T01:31:22.804Z,10.74
2023-09-24T01:33:50.557Z,10.75
2023-09-24T01:36:20.830Z,10.74
2023-09-24T01:38:49.141Z,10.79
2023-09-24T01:41:16.209Z,10.75
2023-09-24T01:43:46.474Z,10.84
2023-09-24T01:46:16.473Z,10.78
2023-09-24T01:48:50.700Z,10.82
2023-09-24T01:51:17.496Z,10.76
2023-09-24T01:53:44.392Z,10.80
2023-09-24T01:56:11.173Z,10.67
2023-09-24T01:58:40.974Z,10.68
2023-09-24T02:01:10.876Z,10.79
2023-09-24T02:03:38.366Z,10.88
2023-09-24T02:06:08.166Z,10.93
2023-09-24T02:08:35.377Z,10.93
2023-09-24T02:11:04.775Z,10.94
2023-09-24T02:13:32.103Z,10.94
2023-09-24T02:16:02.218Z,10.93
2023-09-24T02:18:34.024Z,11.01
2023-09-24T02:21:01.251Z,10.98
2023-09-24T02:23:28.108Z,11.08
2023-09-24T02:25:56.430Z,11.09
2023-09-24T02:28:25.470Z,11.18
2023-09-24T02:30:54.563Z,11.18
2023-09-24T02:33:22.171Z,11.21
2023-09-24T02:35:50.577Z,11.19
2023-09-24T02:38:17.516Z,11.28
2023-09-24T02:40:44.855Z,11.20
2023-09-24T02:43:12.682Z,11.03
2023-09-24T02:45:39.532Z,10.92
2023-09-24T02:48:07.586Z,10.82
2023-09-24T02:50:34.622Z,10.60
2023-09-24T02:53:04.364Z,10.45
2023-09-24T02:55:31.757Z,10.52
2023-09-24T02:57:58.879Z,10.49
2023-09-24T03:00:42.748Z,10.34
2023-09-24T03:03:10.959Z,10.32
2023-09-24T03:05:38.891Z,10.28
2023-09-24T03:08:07.232Z,10.21
2023-09-24T03:10:35.942Z,10.14
2023-09-24T03:13:06.318Z,10.05
2023-09-24T03:15:34.409Z,9.95
2023-09-24T03:18:01.390Z,10.00
2023-09-24T03:20:30.228Z,10.07
2023-09-24T03:23:02.364Z,9.77
2023-09-24T03:25:29.785Z,9.85
2023-09-24T03:28:04.148Z,9.98
2023-09-24T03:30:31.274Z,9.88
2023-09-24T03:32:58.545Z,9.99
2023-09-24T03:35:27.431Z,10.07
2023-09-24T03:37:55.634Z,10.05
2023-09-24T03:40:25.662Z,10.00
2023-09-24T03:42:52.709Z,9.94
2023-09-24T03:45:21.145Z,9.90
2023-09-24T03:47:48.207Z,9.95
2023-09-24T03:50:18.497Z,9.97
2023-09-24T03:52:50.542Z,9.76
2023-09-24T03:55:18.032Z,9.63
2023-09-24T03:57:45.320Z,9.55
2023-09-24T04:00:12.720Z,9.37
2023-09-24T04:02:42.591Z,9.35
2023-09-24T04:05:10.964Z,9.32
2023-09-24T04:07:39.487Z,9.30
2023-09-24T04:10:07.234Z,9.24
2023-09-24T04:12:36.828Z,9.28
2023-09-24T04:15:05.165Z,9.29
2023-09-24T04:17:33.372Z,9.23
2023-09-24T04:20:00.498Z,9.42
2023-09-24T04:22:28.536Z,9.54
2023-09-24T04:24:55.597Z,9.45
2023-09-24T04:27:23.952Z,9.49
2023-09-24T04:29:51.340Z,9.41
2023-09-24T04:32:18.280Z,9.41
2023-09-24T04:34:49.134Z,9.30
2023-09-24T04:37:17.564Z,9.28
2023-09-24T04:39:48.947Z,9.25
2023-09-24T04:42:16.093Z,9.30
2023-09-24T04:44:43.628Z,9.25
2023-09-24T04:47:10.673Z,9.18
2023-09-24T04:49:37.535Z,9.12
2023-09-24T04:52:04.473Z,9.06
2023-09-24T04:54:31.426Z,9.11
2023-09-24T04:56:58.484Z,9.06
2023-09-24T04:59:25.413Z,9.10
2023-09-24T05:01:52.256Z,9.09
2023-09-24T05:04:22.349Z,9.27
2023-09-24T05:06:49.379Z,8.84
2023-09-24T05:09:16.189Z,8.85
2023-09-24T05:11:43.232Z,8.77
2023-09-24T05:14:10.942Z,8.66
2023-09-24T05:16:38.050Z,8.68
2023-09-24T05:19:06.534Z,8.72
2023-09-24T05:21:33.485Z,8.79
2023-09-24T05:24:00.725Z,8.60
2023-09-24T05:26:27.749Z,8.66
2023-09-24T05:28:54.610Z,8.66
2023-09-24T05:31:21.612Z,8.70
2023-09-24T05:33:49.000Z,8.70
2023-09-24T05:36:15.925Z,8.90
2023-09-24T05:38:42.817Z,9.15
2023-09-24T05:41:09.649Z,9.24
2023-09-24T05:43:36.760Z,9.14
2023-09-24T05:46:03.781Z,8.91
2023-09-24T05:48:30.927Z,9.04
2023-09-24T05:50:58.059Z,9.03
2023-09-24T05:53:24.924Z,9.21
2023-09-24T05:55:56.917Z,9.37
2023-09-24T05:58:24.108Z,9.46
2023-09-24T06:00:53.716Z,9.47
2023-09-24T06:03:20.877Z,9.79
2023-09-24T06:05:47.997Z,10.00
2023-09-24T06:08:15.004Z,10.92
2023-09-24T06:10:48.318Z,12.19
2023-09-24T06:13:16.944Z,13.31
2023-09-24T06:15:48.422Z,14.03
2023-09-24T06:18:15.303Z,14.82
2023-09-24T06:20:44.498Z,15.03
2023-09-24T06:23:11.755Z,15.17
2023-09-24T06:25:39.238Z,15.33
2023-09-24T06:28:10.328Z,15.18
2023-09-24T06:30:39.118Z,14.83
2023-09-24T06:33:07.184Z,14.26
2023-09-24T06:35:38.619Z,13.54
2023-09-24T06:38:05.844Z,13.11
2023-09-24T06:40:45.997Z,12.91
2023-09-24T06:43:13.098Z,12.81
2023-09-24T06:45:40.048Z,12.75
2023-09-24T06:48:11.292Z,12.79
2023-09-24T06:50:42.733Z,12.84
2023-09-24T06:53:13.295Z,13.07
2023-09-24T06:55:40.866Z,13.08
2023-09-24T06:58:10.864Z,13.07
2023-09-24T07:00:38.250Z,12.98
2023-09-24T07:03:06.859Z,13.11
2023-09-24T07:05:34.061Z,13.12
2023-09-24T07:08:00.945Z,12.93
2023-09-24T07:10:27.846Z,13.21
2023-09-24T07:12:54.673Z,13.22
2023-09-24T07:15:21.813Z,13.30
2023-09-24T07:17:48.665Z,13.33
2023-09-24T07:20:16.114Z,13.35
2023-09-24T07:22:42.993Z,13.47
2023-09-24T07:25:11.437Z,13.37
2023-09-24T07:27:38.420Z,13.37
2023-09-24T07:30:05.893Z,13.35
2023-09-24T07:32:34.725Z,13.27
2023-09-24T07:35:01.845Z,13.26
2023-09-24T07:37:28.814Z,13.18
2023-09-24T07:39:55.680Z,13.21
2023-09-24T07:42:22.798Z,13.24
2023-09-24T07:44:50.152Z,13.45
2023-09-24T07:47:17.178Z,13.78
2023-09-24T07:49:45.100Z,13.84
2023-09-24T07:52:13.556Z,14.11
2023-09-24T07:54:40.642Z,14.44
2023-09-24T07:57:07.686Z,14.54
2023-09-24T07:59:34.792Z,14.66
2023-09-24T08:02:03.123Z,14.65
2023-09-24T08:04:30.373Z,14.70
2023-09-24T08:06:57.665Z,14.70
2023-09-24T08:09:26.962Z,15.03
2023-09-24T08:11:55.431Z,15.20
2023-09-24T08:14:22.782Z,15.56
2023-09-24T08:16:51.229Z,16.00
2023-09-24T08:19:18.427Z,16.37
2023-09-24T08:21:45.367Z,16.57
2023-09-24T08:24:15.701Z,16.79
2023-09-24T08:26:42.938Z,16.74
2023-09-24T08:29:10.201Z,16.86
2023-09-24T08:31:37.334Z,17.36
2023-09-24T08:34:05.343Z,17.60
2023-09-24T08:36:33.761Z,17.89
2023-09-24T08:39:05.802Z,17.72
2023-09-24T08:41:33.529Z,17.68
2023-09-24T08:44:06.294Z,17.86
2023-09-24T08:46:35.937Z,17.88
2023-09-24T08:49:05.322Z,18.12
2023-09-24T08:51:34.816Z,18.12
2023-09-24T08:54:02.166Z,18.26
2023-09-24T08:56:29.394Z,18.48
2023-09-24T08:58:56.441Z,18.34
2023-09-24T09:01:23.607Z,18.55
2023-09-24T09:03:50.619Z,18.11
2023-09-24T09:06:34.665Z,18.52
2023-09-24T09:09:02.120Z,18.53
2023-09-24T09:11:42.569Z,18.50
2023-09-24T09:14:11.249Z,18.44
2023-09-24T09:17:06.278Z,18.22
2023-09-24T09:19:53.543Z,18.51
2023-09-24T09:22:28.596Z,18.61
2023-09-24T09:25:05.494Z,18.60
2023-09-24T09:27:37.064Z,18.79
2023-09-24T09:30:16.904Z,18.85
2023-09-24T09:32:48.175Z,18.47
2023-09-24T09:35:16.725Z,18.63
2023-09-24T09:37:44.976Z,18.81
2023-09-24T09:40:13.081Z,19.18
2023-09-24T09:42:49.821Z,19.36
2023-09-24T09:45:17.364Z,19.24
2023-09-24T09:48:05.440Z,19.14
2023-09-24T09:50:41.872Z,19.29
2023-09-24T09:53:11.058Z,19.07
2023-09-24T09:55:41.458Z,19.20
2023-09-24T09:58:22.335Z,18.86
2023-09-24T10:00:53.231Z,19.42
2023-09-24T10:03:21.352Z,19.12
2023-09-24T10:05:50.129Z,18.48
2023-09-24T10:08:42.853Z,18.19
2023-09-24T10:11:11.578Z,18.26
2023-09-24T10:13:51.749Z,18.37
2023-09-24T10:16:29.164Z,18.48
2023-09-24T10:18:58.065Z,18.67
2023-09-24T10:21:41.217Z,18.62
2023-09-24T10:24:11.162Z,18.89
2023-09-24T10:27:05.125Z,18.87
2023-09-24T10:29:47.537Z,19.00
2023-09-24T10:32:14.374Z,19.15
2023-09-24T10:34:53.562Z,18.89
2023-09-24T10:37:24.576Z,19.47
2023-09-24T10:40:06.752Z,19.36
2023-09-24T10:42:40.797Z,19.29
2023-09-24T10:45:07.640Z,19.36
2023-09-24T10:47:39.142Z,19.47
2023-09-24T10:50:07.736Z,19.22
2023-09-24T10:52:55.030Z,19.12
2023-09-24T10:55:28.274Z,19.39
2023-09-24T10:57:56.364Z,19.36
2023-09-24T11:00:26.704Z,19.50
2023-09-24T11:03:00.496Z,19.15
2023-09-24T11:05:28.789Z,19.19
2023-09-24T11:07:56.650Z,19.32
2023-09-24T11:10:25.422Z,19.01
2023-09-24T11:13:19.077Z,18.56
2023-09-24T11:15:46.209Z,18.43
2023-09-24T11:18:14.903Z,18.99
2023-09-24T11:20:54.735Z,19.35
2023-09-24T11:23:21.820Z,19.76
2023-09-24T11:25:50.290Z,19.77
2023-09-24T11:28:17.497Z,20.09
2023-09-24T11:30:52.341Z,19.63
2023-09-24T11:33:25.380Z,19.35
2023-09-24T11:35:54.155Z,19.26
2023-09-24T11:38:34.869Z,18.99
2023-09-24T11:41:14.115Z,18.83
2023-09-24T11:43:42.235Z,18.54
2023-09-24T11:46:29.657Z,18.29
2023-09-24T11:49:00.013Z,18.22
2023-09-24T11:51:27.518Z,18.42
2023-09-24T11:53:54.365Z,18.56
2023-09-24T11:56:21.140Z,18.22
2023-09-24T11:58:48.500Z,18.76
2023-09-24T12:01:15.774Z,19.42
2023-09-24T12:03:43.862Z,20.02
2023-09-24T12:06:11.221Z,19.95
2023-09-24T12:08:38.326Z,20.20
2023-09-24T12:11:05.103Z,20.11
2023-09-24T12:13:32.224Z,20.17
2023-09-24T12:15:59.777Z,20.00
2023-09-24T12:18:26.896Z,19.71
2023-09-24T12:20:55.107Z,19.72
2023-09-24T12:23:22.045Z,19.88
2023-09-24T12:25:48.801Z,19.59
2023-09-24T12:28:17.407Z,19.11
2023-09-24T12:30:45.812Z,19.44
2023-09-24T12:33:15.164Z,19.85
2023-09-24T12:35:43.171Z,20.18
2023-09-24T12:38:10.817Z,19.84
2023-09-24T12:40:37.825Z,20.30
2023-09-24T12:43:04.726Z,19.87
2023-09-24T12:45:31.660Z,20.12
2023-09-24T12:47:58.502Z,20.00
2023-09-24T12:50:26.139Z,19.46
2023-09-24T12:52:52.881Z,19.98
2023-09-24T12:55:23.212Z,19.90
2023-09-24T12:57:50.340Z,20.24
2023-09-24T13:00:18.062Z,20.19
2023-09-24T13:02:47.285Z,20.08
2023-09-24T13:05:18.076Z,19.60
2023-09-24T13:07:46.169Z,19.61
2023-09-24T13:10:17.632Z,19.27
2023-09-24T13:12:45.520Z,19.38
2023-09-24T13:15:13.662Z,19.54
2023-09-24T13:17:41.554Z,19.25
2023-09-24T13:20:11.182Z,19.44
2023-09-24T13:22:38.216Z,19.48
2023-09-24T13:25:06.087Z,19.39
2023-09-24T13:27:34.014Z,19.64
2023-09-24T13:30:04.121Z,19.86
2023-09-24T13:32:32.841Z,19.75
2023-09-24T13:35:01.177Z,19.75
2023-09-24T13:37:28.046Z,19.51
2023-09-24T13:39:54.856Z,19.58
2023-09-24T13:42:22.191Z,19.54
2023-09-24T13:44:49.106Z,19.61
2023-09-24T13:47:21.398Z,19.67
2023-09-24T13:49:48.132Z,19.47
2023-09-24T13:52:14.830Z,19.73
2023-09-24T13:54:41.638Z,19.62
2023-09-24T13:57:09.516Z,19.53
2023-09-24T13:59:36.402Z,18.94
2023-09-24T14:02:07.132Z,19.12
2023-09-24T14:04:34.177Z,19.09
2023-09-24T14:07:01.089Z,19.10
2023-09-24T14:09:46.491Z,18.96
2023-09-24T14:12:22.712Z,18.82
2023-09-24T14:14:50.913Z,18.81
2023-09-24T14:17:17.767Z,18.90
2023-09-24T14:19:44.573Z,18.67
2023-09-24T14:22:11.420Z,18.61
2023-09-24T14:24:40.072Z,18.53
2023-09-24T14:27:08.980Z,18.48
2023-09-24T14:29:36.071Z,18.66
2023-09-24T14:32:02.861Z,18.55
2023-09-24T14:34:29.740Z,18.79
2023-09-24T14:36:56.556Z,18.81
2023-09-24T14:39:24.271Z,18.82
2023-09-24T14:41:51.318Z,19.08
2023-09-24T14:44:18.103Z,18.96
2023-09-24T14:46:45.683Z,18.81
2023-09-24T14:49:13.274Z,18.60
2023-09-24T14:51:40.621Z,18.54
2023-09-24T14:54:07.532Z,18.48
2023-09-24T14:56:34.696Z,18.41
2023-09-24T14:59:02.318Z,18.61
2023-09-24T15:01:29.186Z,18.48
2023-09-24T15:03:56.285Z,18.27
2023-09-24T15:06:23.283Z,18.21
2023-09-24T15:08:50.349Z,18.27
2023-09-24T15:11:17.517Z,18.10
2023-09-24T15:13:44.390Z,18.02
2023-09-24T15:16:11.325Z,18.21
2023-09-24T15:18:38.226Z,18.01
2023-09-24T15:21:14.796Z,18.07
2023-09-24T15:23:41.803Z,17.92
2023-09-24T15:26:09.252Z,17.87
2023-09-24T15:28:36.746Z,17.88
2023-09-24T15:31:03.891Z,17.92
2023-09-24T15:33:30.827Z,17.78
2023-09-24T15:35:58.014Z,17.70
2023-09-24T15:38:25.067Z,17.54
2023-09-24T15:40:56.297Z,17.66
2023-09-24T15:43:23.512Z,17.59
2023-09-24T15:45:50.414Z,17.43
2023-09-24T15:48:17.979Z,17.53
2023-09-24T15:50:49.187Z,17.57
2023-09-24T15:53:16.712Z,17.49
2023-09-24T15:55:45.624Z,17.28
2023-09-24T15:58:14.426Z,17.23
2023-09-24T16:00:41.366Z,17.12
2023-09-24T16:03:08.489Z,17.17
2023-09-24T16:05:35.560Z,16.90
2023-09-24T16:08:02.599Z,16.63
2023-09-24T16:10:31.484Z,16.71
2023-09-24T16:12:58.589Z,16.81
2023-09-24T16:15:26.046Z,16.86
2023-09-24T16:17:53.573Z,16.66
2023-09-24T16:20:20.596Z,16.73
2023-09-24T16:22:47.489Z,16.67
2023-09-24T16:25:14.464Z,16.70
2023-09-24T16:27:41.401Z,16.65
2023-09-24T16:30:09.212Z,16.64
2023-09-24T16:32:36.474Z,16.51
2023-09-24T16:35:04.398Z,16.37
2023-09-24T16:37:33.902Z,16.33
2023-09-24T16:40:01.618Z,16.34
2023-09-24T16:42:28.870Z,16.24
2023-09-24T16:44:56.573Z,16.20
2023-09-24T16:47:24.524Z,16.05
2023-09-24T16:49:52.071Z,16.11
2023-09-24T16:52:19.920Z,16.00
2023-09-24T16:54:47.391Z,15.91
2023-09-24T16:57:14.878Z,15.81
2023-09-24T16:59:42.417Z,15.89
2023-09-24T17:02:11.328Z,15.82
2023-09-24T17:04:38.568Z,15.68
2023-09-24T17:07:06.214Z,15.55
2023-09-24T17:09:33.470Z,15.46
2023-09-24T17:12:03.016Z,15.36
2023-09-24T17:14:30.262Z,15.25
2023-09-24T17:16:58.087Z,15.27
2023-09-24T17:19:26.921Z,15.10
2023-09-24T17:21:54.512Z,15.17
2023-09-24T17:24:26.242Z,15.12
2023-09-24T17:26:53.638Z,15.02
2023-09-24T17:29:21.721Z,14.86
2023-09-24T17:31:49.414Z,14.84
2023-09-24T17:34:17.788Z,14.86
2023-09-24T17:36:45.061Z,14.80
2023-09-24T18:47:33.575Z,13.38
2023-09-24T20:18:46.055Z,13.39
2023-09-24T20:21:16.838Z,13.37
2023-09-24T20:23:44.891Z,13.40
2023-09-24T20:26:16.220Z,13.23
2023-09-24T20:28:49.009Z,13.29
2023-09-24T20:31:18.800Z,13.28
2023-09-24T20:36:18.176Z,13.41
2023-09-24T21:36:47.519Z,13.15
2023-09-24T21:39:14.506Z,13.21
2023-09-24T21:41:42.889Z,13.10
2023-09-24T21:44:11.505Z,13.20
2023-09-24T21:46:38.981Z,13.07
2023-09-24T21:49:06.572Z,13.06
2023-09-24T21:51:34.501Z,13.04
2023-09-24T21:54:01.921Z,12.91
2023-09-24T21:56:29.528Z,13.03
2023-09-24T21:58:56.656Z,12.97
2023-09-24T22:01:23.788Z,13.07
2023-09-24T22:03:51.930Z,13.06
2023-09-24T22:06:19.275Z,12.88
2023-09-24T22:08:47.630Z,12.91
2023-09-24T22:11:15.587Z,12.98
2023-09-24T22:13:42.662Z,12.95
2023-09-24T22:16:09.736Z,12.97
2023-09-24T22:18:36.722Z,13.04
2023-09-24T22:21:04.074Z,13.03
2023-09-24T22:23:31.311Z,12.87
2023-09-24T22:25:59.233Z,12.86
2023-09-24T22:28:27.092Z,12.81
2023-09-24T22:31:02.311Z,12.81
2023-09-24T22:33:32.512Z,12.86
2023-09-24T22:36:00.046Z,12.81
2023-09-24T22:38:27.042Z,12.87
2023-09-24T22:40:54.021Z,12.77
2023-09-24T22:43:26.935Z,12.68
2023-09-24T22:45:54.590Z,12.70
2023-09-24T22:48:21.621Z,12.63
2023-09-24T22:50:52.784Z,12.73
2023-09-24T22:53:20.683Z,12.71
2023-09-24T22:55:47.566Z,12.61
2023-09-24T22:58:17.178Z,12.66
2023-09-24T23:00:44.045Z,12.63
2023-09-24T23:03:10.974Z,12.59
2023-09-24T23:05:42.020Z,12.42
2023-09-24T23:08:08.940Z,12.46
2023-09-24T23:10:35.797Z,12.62
2023-09-24T23:13:03.216Z,12.42
2023-09-24T23:15:30.375Z,12.54
2023-09-24T23:17:58.254Z,12.50
2023-09-24T23:20:26.325Z,12.54
2023-09-24T23:22:53.243Z,12.49
2023-09-24T23:25:21.409Z,12.51
2023-09-24T23:27:48.296Z,12.38
2023-09-24T23:30:15.435Z,12.42
2023-09-24T23:32:42.590Z,12.45
2023-09-24T23:35:11.723Z,12.61
2023-09-24T23:37:39.173Z,12.58
2023-09-24T23:40:06.774Z,12.58
2023-09-24T23:42:34.298Z,12.64
2023-09-24T23:45:01.287Z,12.60
2023-09-24T23:47:28.276Z,12.80
2023-09-24T23:49:55.107Z,12.79
2023-09-24T23:52:22.097Z,12.77
2023-09-24T23:54:49.563Z,12.75
2023-09-24T23:57:16.950Z,12.73
2023-09-24T23:59:44.233Z,12.78
